Time;durP1;ratioP1;P1;durP2;ratioP2;P2;SDS_P1;SDS_P2;PMS_P1;PMS_P2;Temp;Humidity;BMP_temperature;BMP_pressure;BME280_temperature;BME280_humidity;BME280_pressure;Samples;Min_cycle;Max_cycle;Signal;HPM_P1;HPM_P2
2022/03/09 00:00:13;;;;;;;89.67;28.43;;;;;;;-1.94;100.00;98841.59;5036043;28;20170;-90
2022/03/09 00:02:39;;;;;;;60.00;20.90;;;;;;;1.20;100.00;99383.66;5051722;28;20178;-89
2022/03/09 00:05:05;;;;;;;65.47;23.70;;;;;;;1.11;100.00;99371.31;5052941;28;20463;-89
2022/03/09 00:07:31;;;;;;;66.70;25.17;;;;;;;-0.93;100.00;99028.72;5036584;28;20397;-90
2022/03/09 00:09:56;;;;;;;73.13;25.83;;;;;;;-0.03;100.00;99183.59;5051855;28;20224;-89
2022/03/09 00:12:22;;;;;;;68.07;26.37;;;;;;;0.90;100.00;99332.25;5052490;28;20170;-91
2022/03/09 00:14:48;;;;;;;77.03;28.83;;;;;;;-0.45;100.00;99117.94;5053694;28;20178;-90
2022/03/09 00:17:13;;;;;;;69.50;25.23;;;;;;;-1.98;100.00;98881.78;5052152;28;20417;-90
2022/03/09 00:19:39;;;;;;;53.20;19.83;;;;;;;-0.83;100.00;99070.97;5045986;28;20189;-90
2022/03/09 00:22:05;;;;;;;55.47;19.10;;;;;;;-1.36;100.00;98983.72;5054850;28;20170;-90
2022/03/09 00:24:30;;;;;;;76.30;25.73;;;;;;;-0.31;100.00;99158.09;5036177;28;20649;-91
2022/03/09 00:26:56;;;;;;;104.80;31.67;;;;;;;-1.34;100.00;98982.22;5051890;28;20413;-90
2022/03/09 00:29:21;;;;;;;67.27;25.07;;;;;;;-0.74;100.00;99108.97;5051609;28;20170;-90
2022/03/09 00:31:47;;;;;;;68.90;23.87;;;;;;;-0.06;100.00;99210.72;5051602;28;20261;-90
2022/03/09 00:34:12;;;;;;;70.13;23.27;;;;;;;0.96;100.00;99406.63;5052641;28;20221;-90
2022/03/09 00:36:38;;;;;;;71.33;24.37;;;;;;;-0.82;100.00;99077.66;5053022;28;20177;-90
2022/03/09 00:39:03;;;;;;;55.13;19.97;;;;;;;-0.83;100.00;99066.00;5036047;28;20170;-90
2022/03/09 00:41:29;;;;;;;59.27;21.30;;;;;;;0.11;100.00;99219.53;5056556;28;20181;-89
2022/03/09 00:43:55;;;;;;;49.30;19.87;;;;;;;-0.04;100.00;99194.28;5063240;28;20233;-90
2022/03/09 00:46:20;;;;;;;70.13;24.47;;;;;;;-0.86;100.00;99042.50;5038884;28;20166;-89
2022/03/09 00:48:45;;;;;;;62.17;22.40;;;;;;;1.07;100.00;99404.22;5036786;28;20200;-90
2022/03/09 00:51:11;;;;;;;65.53;23.40;;;;;;;-2.18;100.00;98835.50;5052489;28;20687;-89
2022/03/09 00:53:37;;;;;;;61.40;21.90;;;;;;;-0.65;100.00;99107.25;5040865;28;20172;-89
2022/03/09 00:56:03;;;;;;;66.53;23.97;;;;;;;-1.33;100.00;98976.53;5051727;28;20170;-90
2022/03/09 00:58:29;;;;;;;76.03;28.50;;;;;;;-0.23;100.00;99184.47;5067228;28;20412;-89
2022/03/09 01:00:54;;;;;;;70.20;25.67;;;;;;;0.58;100.00;99276.47;5038460;28;20580;-90
2022/03/09 01:03:20;;;;;;;67.23;25.37;;;;;;;1.06;100.00;99374.19;5056296;28;20174;-90
2022/03/09 01:05:45;;;;;;;83.20;29.13;;;;;;;0.97;100.00;99373.44;5052058;28;20174;-90
2022/03/09 01:08:10;;;;;;;76.03;26.60;;;;;;;-0.38;100.00;99147.50;5054736;28;20177;-90
2022/03/09 01:10:36;;;;;;;62.60;21.20;;;;;;;-1.58;100.00;98923.16;5054597;28;20185;-89
2022/03/09 01:13:02;;;;;;;65.27;24.40;;;;;;;0.87;100.00;99344.44;5040850;28;20206;-88
2022/03/09 01:15:27;;;;;;;55.17;19.40;;;;;;;-2.55;100.00;98786.09;5056568;28;20253;-90
2022/03/09 01:17:53;;;;;;;78.63;23.97;;;;;;;-1.49;100.00;98929.75;5056454;28;20746;-90
2022/03/09 01:20:18;;;;;;;68.70;24.77;;;;;;;0.07;100.00;99192.66;5039942;28;20561;-89
2022/03/09 01:22:44;;;;;;;86.37;27.63;;;;;;;-3.06;100.00;98662.16;5054740;28;20256;-89
2022/03/09 01:25:10;;;;;;;75.20;27.67;;;;;;;-1.89;100.00;98848.69;5039060;28;20216;-90
2022/03/09 01:27:35;;;;;;;78.13;27.10;;;;;;;-0.54;100.00;99107.25;5038424;28;20287;-90
2022/03/09 01:30:01;;;;;;;68.80;23.37;;;;;;;-1.33;100.00;98967.47;5038745;28;20488;-90
2022/03/09 01:32:26;;;;;;;59.93;21.53;;;;;;;0.13;100.00;99228.00;5055077;28;20246;-90
2022/03/09 01:34:52;;;;;;;104.57;28.23;;;;;;;-2.60;100.00;98782.34;5039616;28;20176;-90
2022/03/09 01:37:17;;;;;;;85.73;26.37;;;;;;;0.52;100.00;99264.41;5038175;28;20265;-87
2022/03/09 01:39:43;;;;;;;93.37;30.77;;;;;;;-0.78;100.00;99029.09;5038198;28;20162;-88
2022/03/09 01:42:09;;;;;;;96.23;31.43;;;;;;;-0.18;100.00;99110.22;5041737;28;20181;-89
2022/03/09 01:44:34;;;;;;;68.67;23.10;;;;;;;1.18;100.00;99378.53;5040820;28;20226;-90
2022/03/09 01:47:00;;;;;;;75.77;27.73;;;;;;;-0.96;100.00;98993.69;5038051;28;20177;-90
2022/03/09 01:49:26;;;;;;;74.80;28.00;;;;;;;0.54;100.00;99235.53;5054276;28;20181;-90
2022/03/09 01:51:55;;;;;;;76.93;25.97;;;;;;;-0.84;100.00;98992.19;5054303;28;20178;-89
2022/03/09 01:54:21;;;;;;;70.00;26.70;;;;;;;-0.36;100.00;99111.22;5054154;28;20162;-88
2022/03/09 01:56:47;;;;;;;78.70;29.03;;;;;;;-0.49;100.00;99072.06;5055156;28;20423;-90
2022/03/09 01:59:14;;;;;;;78.20;28.17;;;;;;;1.60;100.00;99361.06;5039429;28;20230;-90
2022/03/09 02:01:40;;;;;;;72.87;28.10;;;;;;;-1.44;100.00;98841.63;5055503;28;20413;-88
2022/03/09 02:04:06;;;;;;;68.07;26.50;;;;;;;-0.48;100.00;99019.13;5056209;28;21052;-89
2022/03/09 02:06:33;;;;;;;82.53;28.83;;;;;;;-0.77;100.00;98979.50;5056299;28;20181;-90
2022/03/09 02:11:43;;;;;;;76.80;27.17;;;;;;;1.32;100.00;99363.81;5038754;28;20427;-89
2022/03/09 02:14:29;;;;;;;77.47;29.63;;;;;;;1.38;100.00;99367.63;5039173;28;20425;-89
2022/03/09 02:16:59;;;;;;;64.87;22.57;;;;;;;1.19;100.00;99371.91;5053473;28;20166;-89
2022/03/09 02:19:25;;;;;;;67.23;24.67;;;;;;;1.30;100.00;99375.25;5037173;28;20409;-89
2022/03/09 02:21:58;;;;;;;76.57;28.83;;;;;;;-0.56;100.00;99049.09;5053659;28;20408;-89
2022/03/09 02:24:25;;;;;;;66.13;22.93;;;;;;;-0.22;100.00;99153.00;5037147;28;20685;-89
2022/03/09 02:26:50;;;;;;;74.97;28.00;;;;;;;-0.41;100.00;99133.22;5037780;28;20855;-89
2022/03/09 02:29:15;;;;;;;74.50;28.77;;;;;;;1.31;100.00;99382.88;5051398;28;20405;-89
2022/03/09 02:31:41;;;;;;;77.60;29.53;;;;;;;1.13;100.00;99374.78;5050912;28;20181;-88
2022/03/09 02:34:07;;;;;;;75.97;26.40;;;;;;;-0.19;100.00;99148.25;5049768;28;20158;-89
2022/03/09 02:36:32;;;;;;;72.17;26.03;;;;;;;-0.62;100.00;99089.22;5049931;28;20177;-89
2022/03/09 02:38:58;;;;;;;78.80;29.03;;;;;;;-0.77;100.00;99046.59;5057067;28;20192;-88
2022/03/09 02:41:24;;;;;;;71.37;26.77;;;;;;;0.94;100.00;99363.22;5042101;28;20556;-88
2022/03/09 02:43:49;;;;;;;65.90;23.30;;;;;;;-0.42;100.00;99130.63;5033543;28;20248;-89
2022/03/09 02:46:15;;;;;;;75.33;29.00;;;;;;;-1.80;100.00;98866.81;5033959;28;20411;-89
2022/03/09 02:48:40;;;;;;;80.77;29.47;;;;;;;0.06;100.00;99206.72;5033737;28;20166;-89
2022/03/09 02:51:06;;;;;;;69.27;27.27;;;;;;;-0.36;100.00;99148.53;5039778;28;20177;-89
2022/03/09 02:53:31;;;;;;;80.10;28.60;;;;;;;-1.89;100.00;98848.69;5061829;28;20176;-90
2022/03/09 02:55:56;;;;;;;74.97;28.37;;;;;;;-0.56;100.00;99061.50;5036939;28;20162;-90
2022/03/09 02:58:22;;;;;;;71.80;27.03;;;;;;;0.43;100.00;99251.25;5034360;28;20659;-89
2022/03/09 03:00:47;;;;;;;68.33;25.87;;;;;;;-0.04;100.00;99144.53;5032718;28;20170;-90
2022/03/09 03:03:13;;;;;;;79.50;28.67;;;;;;;-0.10;100.00;99137.44;5048573;28;20178;-90
2022/03/09 03:05:38;;;;;;;74.87;28.33;;;;;;;-1.82;100.00;98843.50;5033583;28;20212;-90
2022/03/09 03:08:04;;;;;;;73.07;26.63;;;;;;;-0.14;100.00;99105.59;5032209;28;20178;-90
2022/03/09 03:10:29;;;;;;;72.97;26.77;;;;;;;-0.62;100.00;99019.63;5048412;28;20238;-87
2022/03/09 03:12:55;;;;;;;77.37;29.37;;;;;;;0.72;100.00;99252.66;5048426;28;20198;-89
2022/03/09 03:15:20;;;;;;;73.80;27.43;;;;;;;0.34;100.00;99223.13;5031810;28;20189;-89
2022/03/09 03:17:46;;;;;;;82.23;27.87;;;;;;;0.75;100.00;99300.22;5031896;28;20189;-88
2022/03/09 03:20:11;;;;;;;75.33;27.43;;;;;;;1.12;100.00;99375.56;5033719;28;20174;-88
2022/03/09 03:22:37;;;;;;;74.83;26.93;;;;;;;0.57;100.00;99275.63;5033181;28;20181;-89
2022/03/09 03:25:03;;;;;;;84.47;27.97;;;;;;;-1.37;100.00;98952.19;5032940;28;20268;-89
2022/03/09 03:27:28;;;;;;;90.47;30.80;;;;;;;-1.50;100.00;98922.16;5030780;28;20180;-89
2022/03/09 03:29:54;;;;;;;91.53;32.90;;;;;;;-0.22;100.00;99100.78;5032174;28;20473;-89
2022/03/09 03:32:19;;;;;;;93.23;32.83;;;;;;;-0.74;100.00;99019.50;5032927;28;20168;-89
2022/03/09 03:34:44;;;;;;;90.97;32.57;;;;;;;0.78;100.00;99280.56;5033902;28;20165;-87
2022/03/09 03:37:10;;;;;;;87.07;30.10;;;;;;;0.62;100.00;99257.66;5034749;28;20224;-89
2022/03/09 03:39:35;;;;;;;90.03;32.17;;;;;;;1.22;100.00;99354.72;5032790;28;20244;-89
2022/03/09 03:42:01;;;;;;;76.13;29.27;;;;;;;1.22;100.00;99371.28;5032760;28;20637;-89
2022/03/09 03:44:27;;;;;;;77.47;27.77;;;;;;;0.74;100.00;99303.50;5047806;28;20229;-89
2022/03/09 03:46:52;;;;;;;75.00;25.97;;;;;;;1.25;100.00;99387.38;5048283;28;20600;-89
2022/03/09 03:49:18;;;;;;;88.37;32.43;;;;;;;-0.37;100.00;99102.91;5032852;28;20166;-89
2022/03/09 03:51:43;;;;;;;81.03;30.00;;;;;;;-1.64;100.00;98947.44;5047871;28;20168;-89
2022/03/09 03:54:10;;;;;;;81.23;31.30;;;;;;;0.48;100.00;99269.91;5032620;28;20541;-87
2022/03/09 03:56:36;;;;;;;81.27;28.77;;;;;;;-1.08;100.00;98994.31;5032664;28;20154;-89
2022/03/09 03:59:02;;;;;;;75.17;27.73;;;;;;;0.94;100.00;99350.78;5032978;28;20432;-89
2022/03/09 04:01:27;;;;;;;88.17;31.33;;;;;;;-0.01;100.00;99164.69;5032909;28;20830;-88
2022/03/09 04:03:53;;;;;;;73.67;27.33;;;;;;;-1.46;100.00;98912.63;5032209;28;20198;-89
2022/03/09 04:06:18;;;;;;;79.40;29.80;;;;;;;0.84;100.00;99315.91;5047788;28;20253;-88
2022/03/09 04:08:43;;;;;;;72.23;26.60;;;;;;;1.19;100.00;99371.91;5031799;28;20616;-89
2022/03/09 04:11:09;;;;;;;73.93;27.53;;;;;;;-1.95;100.00;98843.22;5032071;28;20296;-89
2022/03/09 04:13:34;;;;;;;95.13;33.80;;;;;;;-1.33;100.00;98961.66;5032607;28;20181;-89
2022/03/09 04:16:00;;;;;;;80.27;29.40;;;;;;;-1.74;100.00;98861.47;5031006;28;20166;-89
2022/03/09 04:18:25;;;;;;;81.37;30.23;;;;;;;-0.40;100.00;99131.59;5047347;28;20697;-88
2022/03/09 04:20:50;;;;;;;85.13;30.50;;;;;;;0.66;100.00;99324.44;5032357;28;20224;-89
2022/03/09 04:23:16;;;;;;;72.63;26.50;;;;;;;-1.51;100.00;98940.28;5032658;28;20250;-89
2022/03/09 04:25:41;;;;;;;84.23;31.63;;;;;;;-1.93;100.00;98839.28;5032603;28;20209;-89
2022/03/09 04:28:07;;;;;;;80.43;29.33;;;;;;;1.17;100.00;99380.91;5031998;28;20170;-89
2022/03/09 04:30:32;;;;;;;75.13;25.73;;;;;;;-0.11;100.00;99157.22;5047637;28;20162;-89
2022/03/09 04:32:58;;;;;;;73.47;28.00;;;;;;;1.08;100.00;99370.19;5035787;28;20166;-89
2022/03/09 04:35:24;;;;;;;76.97;30.73;;;;;;;-1.80;100.00;98905.63;5047432;28;20165;-90
2022/03/09 04:37:49;;;;;;;80.67;30.70;;;;;;;1.19;100.00;99379.41;5039814;28;20546;-89
2022/03/09 04:40:16;;;;;;;79.43;27.80;;;;;;;-0.95;100.00;99037.66;5033994;28;20301;-89
2022/03/09 04:42:42;;;;;;;88.90;32.50;;;;;;;-1.05;100.00;99022.75;5032156;28;20235;-89
2022/03/09 04:45:08;;;;;;;88.20;33.53;;;;;;;0.28;100.00;99230.09;5046662;28;20536;-89
2022/03/09 04:47:34;;;;;;;86.77;33.20;;;;;;;0.27;100.00;99182.69;5032076;28;20186;-90
2022/03/09 04:49:59;;;;;;;72.53;27.53;;;;;;;0.92;100.00;99322.38;5030711;28;20470;-89
2022/03/09 04:52:25;;;;;;;77.63;28.60;;;;;;;1.24;100.00;99378.13;5047388;28;20265;-90
2022/03/09 04:54:50;;;;;;;72.90;26.80;;;;;;;-1.20;100.00;98985.13;5031803;28;20165;-89
2022/03/09 04:57:16;;;;;;;77.07;28.63;;;;;;;-1.04;100.00;99031.94;5033129;28;20189;-89
2022/03/09 04:59:41;;;;;;;88.57;31.23;;;;;;;-0.50;100.00;99139.94;5052543;28;20170;-89
2022/03/09 05:02:07;;;;;;;80.53;29.70;;;;;;;-1.18;100.00;99005.09;5047486;28;20174;-89
2022/03/09 05:04:32;;;;;;;79.83;29.80;;;;;;;-1.74;100.00;98930.06;5033131;28;20190;-89
2022/03/09 05:06:57;;;;;;;93.30;31.73;;;;;;;-0.81;100.00;99091.81;5032014;28;20220;-89
2022/03/09 05:09:23;;;;;;;85.17;30.70;;;;;;;-0.69;100.00;99092.81;5031442;28;20155;-90
2022/03/09 05:11:48;;;;;;;94.70;34.30;;;;;;;-0.74;100.00;99079.16;5046922;28;20198;-90
2022/03/09 05:14:14;;;;;;;84.17;31.83;;;;;;;-0.27;100.00;99142.66;5046786;28;20734;-89
2022/03/09 05:16:39;;;;;;;88.23;29.23;;;;;;;0.02;100.00;99189.81;5031727;28;20167;-89
2022/03/09 05:19:05;;;;;;;91.40;34.73;;;;;;;-0.30;100.00;99131.63;5046909;28;20174;-90
2022/03/09 05:21:30;;;;;;;128.43;47.03;;;;;;;-2.38;100.00;98800.75;5034003;28;20287;-91
2022/03/09 05:23:56;;;;;;;114.07;41.80;;;;;;;-1.27;100.00;99009.31;5035752;28;20697;-90
2022/03/09 05:26:21;;;;;;;110.67;40.27;;;;;;;-0.37;100.00;99151.75;5038042;28;20174;-89
2022/03/09 05:28:47;;;;;;;89.50;32.83;;;;;;;-0.20;100.00;99189.69;5034287;28;20273;-90
2022/03/09 05:31:12;;;;;;;88.80;31.97;;;;;;;0.74;100.00;99358.28;5045641;28;20201;-89
2022/03/09 05:33:38;;;;;;;88.97;32.80;;;;;;;-0.84;100.00;99101.50;5045218;28;20189;-90
2022/03/09 05:36:03;;;;;;;90.07;32.17;;;;;;;-0.65;100.00;99107.25;5031223;28;20243;-89
2022/03/09 05:38:29;;;;;;;81.20;29.87;;;;;;;-0.76;100.00;99110.47;5046358;28;20181;-89
2022/03/09 05:40:54;;;;;;;94.83;33.00;;;;;;;-0.48;100.00;99154.97;5014912;28;20900;-89
2022/03/09 05:43:20;;;;;;;76.83;29.20;;;;;;;-0.85;100.00;99149.44;5030421;28;20237;-91
2022/03/09 05:45:45;;;;;;;82.00;29.53;;;;;;;0.89;100.00;99439.25;5033609;28;20214;-88
2022/03/09 05:48:11;;;;;;;83.20;30.53;;;;;;;-0.51;100.00;99179.56;5040222;28;20926;-90
2022/03/09 05:50:36;;;;;;;83.63;30.53;;;;;;;0.26;100.00;99273.91;5032819;28;20967;-88
2022/03/09 05:53:03;;;;;;;93.67;33.40;;;;;;;0.28;100.00;99329.66;5031886;28;20213;-90
2022/03/09 05:55:28;;;;;;;79.17;28.80;;;;;;;0.99;100.00;99447.59;5031784;28;20634;-91
2022/03/09 05:57:53;;;;;;;82.90;30.63;;;;;;;-0.57;100.00;99179.94;5032524;28;20441;-90
2022/03/09 06:00:19;;;;;;;88.47;31.70;;;;;;;0.79;100.00;99414.34;5048151;28;20205;-89
2022/03/09 06:02:44;;;;;;;82.97;30.17;;;;;;;1.20;100.00;99458.44;5033490;28;20644;-91
2022/03/09 06:05:10;;;;;;;85.07;29.30;;;;;;;1.02;100.00;99471.88;5031146;28;20269;-89
2022/03/09 06:07:35;;;;;;;103.33;36.03;;;;;;;-1.56;100.00;99003.53;5048776;28;20794;-90
2022/03/09 06:10:01;;;;;;;120.40;47.90;;;;;;;0.80;100.00;99463.41;5031996;28;20697;-90
2022/03/09 06:12:27;;;;;;;109.73;38.97;;;;;;;0.17;100.00;99312.97;5048492;28;20280;-90
2022/03/09 06:14:52;;;;;;;107.63;40.77;;;;;;;-0.17;100.00;99223.88;5030608;28;20196;-90
2022/03/09 06:17:17;;;;;;;94.50;34.53;;;;;;;0.88;100.00;99465.78;5032430;28;20189;-89
2022/03/09 06:19:43;;;;;;;91.63;36.77;;;;;;;-1.00;100.00;99139.84;5031771;28;20184;-90
2022/03/09 06:22:08;;;;;;;83.10;31.57;;;;;;;-0.48;100.00;99199.72;5038574;28;20237;-89
2022/03/09 06:24:34;;;;;;;71.23;26.60;;;;;;;-0.11;100.00;99259.22;5034690;28;20221;-90
2022/03/09 06:26:59;;;;;;;75.67;27.20;;;;;;;0.06;100.00;99268.03;5032740;28;21077;-89
2022/03/09 06:29:25;;;;;;;66.73;25.23;;;;;;;0.57;100.00;99371.88;5048330;28;20192;-90
2022/03/09 06:31:50;;;;;;;84.57;30.87;;;;;;;1.40;100.00;99478.34;5050052;28;20171;-91
2022/03/09 06:34:16;;;;;;;94.93;35.13;;;;;;;1.25;100.00;99479.63;5038528;28;20549;-90
2022/03/09 06:36:44;;;;;;;86.13;32.23;;;;;;;-0.09;100.00;99240.31;5042723;28;20189;-91
2022/03/09 06:39:12;;;;;;;78.87;28.67;;;;;;;0.55;100.00;99426.53;5035406;28;20477;-91
2022/03/09 06:41:41;;;;;;;102.40;37.23;;;;;;;-1.40;100.00;99088.50;5049596;28;20432;-91
2022/03/09 06:44:07;;;;;;;63.20;21.83;;;;;;;-1.18;100.00;99146.63;5050126;28;20500;-91
2022/03/09 06:46:32;;;;;;;92.57;32.77;;;;;;;0.80;100.00;99488.31;5048945;28;20425;-91
2022/03/09 06:48:58;;;;;;;92.00;33.13;;;;;;;0.77;100.00;99483.09;5051111;28;20767;-91
2022/03/09 06:51:24;;;;;;;106.77;37.77;;;;;;;-0.78;100.00;99210.47;5050897;28;20196;-91
2022/03/09 06:53:49;;;;;;;96.67;33.43;;;;;;;-1.82;100.00;98993.94;5038591;28;20190;-92
2022/03/09 06:56:16;;;;;;;97.70;33.17;;;;;;;-2.26;100.00;98965.34;5054181;28;20192;-93
2022/03/09 06:58:41;;;;;;;97.87;38.23;;;;;;;-0.80;100.00;99194.56;5052784;28;20193;-90
2022/03/09 07:01:07;;;;;;;123.07;46.17;;;;;;;-0.71;100.00;99177.94;5053842;28;20474;-93
2022/03/09 07:03:33;;;;;;;112.37;38.67;;;;;;;-0.37;100.00;99243.75;5037499;28;20677;-92
2022/03/09 07:05:58;;;;;;;155.07;54.87;;;;;;;-3.05;100.00;98754.59;5041241;28;20254;-90
2022/03/09 07:08:24;;;;;;;140.27;53.47;;;;;;;-0.06;100.00;99257.97;5058728;28;20200;-92
2022/03/09 07:10:50;;;;;;;124.33;42.00;;;;;;;1.41;100.00;99492.56;5056381;28;20186;-93
2022/03/09 07:13:19;;;;;;;130.50;49.10;;;;;;;-0.81;100.00;99066.09;5047088;28;20264;-95
2022/03/09 07:15:57;;;;;;;115.87;38.73;;;;;;;1.41;100.00;99485.06;5065125;28;20186;-94
2022/03/09 07:18:36;;;;;;;108.03;40.60;;;;;;;1.24;100.00;99492.81;5045839;28;20473;-92
2022/03/09 07:21:05;;;;;;;136.90;46.20;;;;;;;-2.06;100.00;98848.06;5046754;28;20467;-94
2022/03/09 07:23:31;;;;;;;87.47;34.83;;;;;;;-2.08;100.00;98892.53;5077317;28;20442;-93
2022/03/09 07:25:56;;;;;;;83.10;33.87;;;;;;;0.07;100.00;99243.28;5074263;28;20431;-94
2022/03/09 07:28:22;;;;;;;87.37;33.93;;;;;;;-2.57;100.00;98810.75;5076360;28;20220;-93
2022/03/09 07:30:49;;;;;;;79.77;29.43;;;;;;;0.10;100.00;99270.91;5046560;28;20197;-93
2022/03/09 07:33:15;;;;;;;79.50;30.60;;;;;;;-2.88;100.00;98751.09;5029663;28;20304;-95
2022/03/09 07:35:47;;;;;;;85.97;31.20;;;;;;;1.39;100.00;99494.06;5456607;22;20436;-94
2022/03/09 07:38:16;;;;;;;103.33;37.83;;;;;;;1.23;100.00;99522.63;4990448;28;20485;-92
2022/03/09 07:40:43;;;;;;;75.10;29.63;;;;;;;0.57;100.00;99416.69;5005444;28;20442;-91
2022/03/09 07:43:09;;;;;;;77.75;29.88;;;;;;;0.27;100.00;99347.84;5002605;28;20446;-91
2022/03/09 07:45:35;;;;;;;59.77;23.07;;;;;;;-0.26;100.00;99230.59;5005177;28;20203;-92
2022/03/09 07:48:04;;;;;;;94.53;35.77;;;;;;;-3.01;100.00;98730.22;5007994;28;20434;-95
2022/03/09 07:50:30;;;;;;;70.83;26.20;;;;;;;-2.68;100.00;98810.56;4991521;28;20216;-93
2022/03/09 07:52:56;;;;;;;59.97;24.47;;;;;;;-1.05;100.00;99062.50;4991909;28;20491;-92
2022/03/09 07:55:22;;;;;;;67.27;27.20;;;;;;;1.70;100.00;99514.84;4972966;28;20328;-92
2022/03/09 07:57:47;;;;;;;75.33;28.67;;;;;;;-0.56;100.00;99069.84;4971545;28;20474;-92
2022/03/09 08:00:14;;;;;;;88.47;33.77;;;;;;;-2.15;100.00;98771.31;4988795;28;20171;-94
2022/03/09 08:02:40;;;;;;;70.93;26.17;;;;;;;0.25;100.00;99256.38;5005339;28;20250;-92
2022/03/09 08:05:06;;;;;;;61.77;24.37;;;;;;;0.04;100.00;99198.25;5020904;28;20473;-92
2022/03/09 08:07:33;;;;;;;79.17;29.50;;;;;;;-2.22;100.00;98802.88;5017580;28;20949;-93
2022/03/09 08:10:09;;;;;;;67.20;24.70;;;;;;;1.99;100.00;99519.63;5020982;28;20440;-91
2022/03/09 08:12:37;;;;;;;102.77;38.80;;;;;;;0.93;100.00;99337.47;5018759;28;20497;-92
2022/03/09 08:15:03;;;;;;;64.17;26.13;;;;;;;-1.22;100.00;98936.94;5018010;28;20483;-91
2022/03/09 08:17:29;;;;;;;102.80;39.60;;;;;;;0.50;100.00;99226.06;5013921;28;20561;-93
2022/03/09 08:19:55;;;;;;;101.57;36.03;;;;;;;-2.53;100.00;98759.84;5033029;28;20536;-91
2022/03/09 08:22:21;;;;;;;129.17;49.97;;;;;;;-0.18;100.00;99125.13;5031316;28;20258;-92
2022/03/09 08:24:50;;;;;;;123.07;46.13;;;;;;;-1.43;100.00;98780.47;5022592;28;20288;-93
2022/03/09 08:27:16;;;;;;;110.83;40.23;;;;;;;0.19;100.00;99055.16;5040248;28;20445;-92
2022/03/09 08:29:45;;;;;;;88.90;33.27;;;;;;;2.97;100.00;99493.13;5044246;28;20437;-92
2022/03/09 08:32:12;;;;;;;68.57;25.27;;;;;;;-1.25;100.00;98857.25;5031290;28;20445;-93
2022/03/09 08:34:39;;;;;;;98.23;36.57;;;;;;;-1.20;100.00;98766.63;5049042;28;20537;-93
2022/03/09 08:37:25;;;;;;;71.43;24.87;;;;;;;2.83;100.00;99501.22;5044410;28;20456;-93
2022/03/09 08:39:54;;;;;;;81.20;31.13;;;;;;;-1.34;100.00;98726.56;5026375;28;20440;-93
2022/03/09 08:42:20;;;;;;;86.83;34.97;;;;;;;0.08;100.00;98991.25;5019362;28;20456;-91
2022/03/09 08:44:51;;;;;;;61.53;25.40;;;;;;;1.89;100.00;99285.06;4999002;28;20548;-92
2022/03/09 08:47:17;;;;;;;70.93;24.63;;;;;;;0.64;100.00;99092.66;5024788;28;20213;-93
2022/03/09 08:49:54;;;;;;;73.20;31.13;;;;;;;3.35;100.00;99520.09;5025333;28;20461;-92
2022/03/09 08:52:35;;;;;;;58.00;24.30;;;;;;;-0.11;100.00;98888.59;4985865;28;20308;-93
2022/03/09 08:55:20;;;;;;;58.43;22.67;;;;;;;1.33;100.00;99156.06;4963041;28;20451;-92
2022/03/09 08:57:49;;;;;;;48.33;20.77;;;;;;;1.44;100.00;99235.94;4961266;28;20715;-93
2022/03/09 09:00:15;;;;;;;79.43;30.03;;;;;;;3.50;100.00;99503.69;4942099;28;20260;-92
2022/03/09 09:02:43;;;;;;;67.77;29.37;;;;;;;-0.09;100.00;98847.28;4928927;28;20490;-92
2022/03/09 09:05:10;;;;;;;59.20;24.37;;;;;;;-0.40;100.00;98834.16;4945439;28;20460;-93
2022/03/09 09:07:36;;;;;;;75.67;30.87;;;;;;;-0.13;100.00;98836.22;4950331;28;20472;-93
2022/03/09 09:10:11;;;;;;;51.10;18.73;;;;;;;-0.49;100.00;98797.75;4956957;28;21165;-93
2022/03/09 09:12:47;;;;;;;64.07;25.60;;;;;;;-0.38;100.00;98859.97;4950608;28;20204;-92
2022/03/09 09:15:24;;;;;;;71.53;30.00;;;;;;;-0.36;100.00;98847.69;4968061;28;20452;-92
2022/03/09 09:18:02;;;;;;;60.40;25.87;;;;;;;0.48;100.00;98856.59;4980455;28;20426;-93
2022/03/09 09:20:28;;;;;;;55.20;21.67;;;;;;;0.80;100.00;98824.06;4977656;28;20444;-92
2022/03/09 09:22:57;;;;;;;65.37;28.60;;;;;;;3.36;100.00;99267.53;4981152;28;20509;-92
2022/03/09 09:25:33;;;;;;;41.57;17.40;;;;;;;0.77;100.00;98850.38;5011564;28;20469;-93
2022/03/09 09:28:06;;;;;;;53.40;22.83;;;;;;;3.52;100.00;99264.44;5031619;28;20443;-93
2022/03/09 09:30:35;;;;;;;43.43;18.57;;;;;;;0.32;100.00;98863.69;5025235;28;20436;-92
2022/03/09 09:33:01;;;;;;;50.20;19.63;;;;;;;0.25;100.00;98886.38;5024750;28;21013;-92
2022/03/09 09:35:36;;;;;;;66.53;28.53;;;;;;;4.01;100.00;99477.34;5041383;28;20417;-93
2022/03/09 09:38:06;;;;;;;63.30;26.57;;;;;;;1.63;100.00;99086.03;5033956;28;20218;-92
2022/03/09 09:41:03;;;;;;;95.20;39.57;;;;;;;0.23;100.00;98857.16;5047144;28;20413;-94
2022/03/09 09:43:31;;;;;;;50.93;21.57;;;;;;;1.33;100.00;99091.25;5000343;28;20463;-91
2022/03/09 09:45:57;;;;;;;63.70;26.27;;;;;;;4.45;100.00;99485.44;4990536;28;20470;-92
2022/03/09 09:48:53;;;;;;;;;;;;;;;;;;;;;
2022/03/09 09:52:02;;;;;;;44.27;20.33;;;;;;;4.31;97.17;99468.63;4930069;28;20266;-95
2022/03/09 09:58:30;;;;;;;50.70;22.57;;;;;;;1.60;94.46;98874.66;4941810;29;20438;-92
2022/03/09 10:01:09;;;;;;;55.17;25.57;;;;;;;1.04;94.96;98780.09;4905504;29;20438;-91
2022/03/09 10:03:38;;;;;;;68.67;31.13;;;;;;;3.21;95.96;99155.56;4917617;29;20442;-91
2022/03/09 10:06:06;;;;;;;63.83;29.80;;;;;;;2.25;93.69;98860.81;4913527;29;20424;-91
2022/03/09 10:11:59;;;;;;;40.73;16.77;;;;;;;1.43;94.35;98876.75;4904146;29;20437;-91
2022/03/09 10:14:53;;;;;;;43.50;20.20;;;;;;;2.99;97.71;99208.22;4914877;29;20438;-93
2022/03/09 10:17:30;;;;;;;35.47;14.07;;;;;;;4.13;96.52;99462.31;4915612;29;20454;-90
2022/03/09 10:20:12;;;;;;;45.47;21.30;;;;;;;1.97;93.78;99081.84;4923705;29;20468;-92
2022/03/09 10:22:46;;;;;;;37.60;18.00;;;;;;;0.31;95.05;98823.75;4947765;29;21080;-92
2022/03/09 10:25:12;;;;;;;72.60;32.27;;;;;;;4.78;95.05;99454.25;4953122;29;20470;-92
2022/03/09 10:27:53;;;;;;;47.13;21.80;;;;;;;1.32;90.64;98825.28;4955880;29;20440;-92
2022/03/09 10:30:21;;;;;;;70.30;32.97;;;;;;;2.91;90.67;99105.19;4958178;29;20195;-93
2022/03/09 10:32:52;;;;;;;51.73;20.27;;;;;;;0.31;92.41;98787.28;4954730;28;20472;-90
2022/03/09 10:35:30;;;;;;;43.10;18.17;;;;;;;3.56;92.68;99346.47;5005204;28;20461;-92
2022/03/09 10:37:57;;;;;;;43.57;17.47;;;;;;;1.05;91.25;98859.06;5040737;28;20465;-90
2022/03/09 10:40:23;;;;;;;41.17;17.47;;;;;;;3.62;90.34;99286.84;5023861;28;20475;-93
2022/03/09 10:42:51;;;;;;;45.03;20.33;;;;;;;0.68;90.52;98810.75;5020683;28;20452;-91
2022/03/09 10:45:23;;;;;;;75.93;29.77;;;;;;;3.56;92.92;99332.34;5037690;28;20457;-92
2022/03/09 10:47:49;;;;;;;50.87;20.40;;;;;;;2.17;90.89;99021.72;5038437;28;20425;-91
2022/03/09 10:50:24;;;;;;;47.83;21.97;;;;;;;2.44;90.60;99068.59;5025305;28;20468;-90
2022/03/09 10:52:53;;;;;;;45.30;21.93;;;;;;;2.21;86.43;98908.81;5038136;28;20182;-89
2022/03/09 10:55:24;;;;;;;40.10;19.73;;;;;;;1.65;85.31;98783.53;5035625;28;20428;-92
2022/03/09 10:57:52;;;;;;;46.23;20.10;;;;;;;3.23;86.93;98999.84;5030822;28;20429;-91
2022/03/09 11:00:40;;;;;;;30.73;14.93;;;;;;;2.62;83.19;98859.09;5028008;28;20519;-92
2022/03/09 11:03:07;;;;;;;43.30;22.37;;;;;;;3.54;83.55;98910.94;5014457;28;20448;-91
2022/03/09 11:05:34;;;;;;;36.57;18.23;;;;;;;2.79;81.41;98778.59;5021095;28;20496;-92
2022/03/09 11:08:02;;;;;;;43.10;21.27;;;;;;;5.20;81.07;99252.97;5026424;28;20421;-89
2022/03/09 11:10:29;;;;;;;37.97;17.83;;;;;;;2.72;80.94;98851.47;5042767;28;20489;-93
2022/03/09 11:12:55;;;;;;;38.50;20.03;;;;;;;3.04;81.14;98801.00;5027863;28;20521;-91
2022/03/09 11:15:26;;;;;;;33.60;18.33;;;;;;;3.87;78.69;98914.72;5026554;28;20425;-92
2022/03/09 11:17:52;;;;;;;43.87;23.83;;;;;;;5.00;78.79;99073.63;5025848;28;20460;-92
2022/03/09 11:20:18;;;;;;;30.77;14.53;;;;;;;6.45;79.41;99393.84;5044082;28;20457;-91
2022/03/09 11:22:44;;;;;;;41.63;21.17;;;;;;;4.72;79.46;99035.16;5025037;28;21108;-89
2022/03/09 11:25:10;;;;;;;40.33;20.77;;;;;;;6.43;79.07;99352.63;5010148;28;20514;-91